Time;durP1;ratioP1;P1;durP2;ratioP2;P2;SDS_P1;SDS_P2;PMS_P1;PMS_P2;Temp;Humidity;BMP_temperature;BMP_pressure;BME280_temperature;BME280_humidity;BME280_pressure;Samples;Min_cycle;Max_cycle;Signal;HPM_P1;HPM_P2
2022/11/28 00:01:14;;;;;;;12.75;6.55;;;;;;;;;;4919473;29;20134;-62
2022/11/28 00:03:41;;;;;;;8.80;6.05;;;;;;;;;;4917688;29;20088;-63
2022/11/28 00:06:08;;;;;;;8.20;5.40;;;;;;;;;;4917164;29;20485;-63
2022/11/28 00:08:34;;;;;;;9.13;5.68;;;;;;;;;;4918064;29;20513;-62
2022/11/28 00:11:05;;;;;;;7.72;4.95;;;;;;;;;;4917779;29;20465;-63
2022/11/28 00:13:31;;;;;;;9.27;4.38;;;;;;;;;;4918285;29;20040;-63
2022/11/28 00:15:58;;;;;;;7.80;4.30;;;;;;;;;;4916675;29;20052;-62
2022/11/28 00:18:25;;;;;;;6.57;4.38;;;;;;;;;;4917997;29;20074;-63
2022/11/28 00:20:51;;;;;;;8.65;5.32;;;;;;;;;;4917349;29;20044;-62
2022/11/28 00:23:18;;;;;;;7.97;4.65;;;;;;;;;;4917143;29;20100;-62
2022/11/28 00:25:44;;;;;;;8.90;5.05;;;;;;;;;;4916669;29;20458;-62
2022/11/28 00:28:10;;;;;;;7.85;5.45;;;;;;;;;;4917385;29;20465;-64
2022/11/28 00:30:37;;;;;;;11.43;6.25;;;;;;;;;;4935852;29;20048;-64
2022/11/28 00:33:03;;;;;;;9.98;4.95;;;;;;;;;;4918682;29;20048;-64
2022/11/28 00:35:30;;;;;;;7.80;4.75;;;;;;;;;;4917025;29;20103;-63
2022/11/28 00:37:56;;;;;;;6.45;4.50;;;;;;;;;;4916742;29;20080;-65
2022/11/28 00:40:23;;;;;;;7.82;4.25;;;;;;;;;;4915644;29;20048;-64
2022/11/28 00:42:49;;;;;;;8.93;4.72;;;;;;;;;;4916314;29;20048;-64
2022/11/28 00:45:15;;;;;;;8.27;5.13;;;;;;;;;;4915577;29;20858;-64
2022/11/28 00:47:42;;;;;;;5.30;3.95;;;;;;;;;;4916867;29;20442;-63
2022/11/28 00:50:08;;;;;;;6.70;4.80;;;;;;;;;;4916474;29;20137;-64
2022/11/28 00:52:35;;;;;;;11.50;4.85;;;;;;;;;;4916889;29;20119;-64
2022/11/28 00:55:01;;;;;;;7.47;4.97;;;;;;;;;;4915829;29;20048;-64
2022/11/28 00:57:27;;;;;;;7.88;4.78;;;;;;;;;;4918506;29;20060;-63
2022/11/28 00:59:54;;;;;;;7.47;4.68;;;;;;;;;;4921094;29;20044;-64
2022/11/28 01:02:20;;;;;;;5.93;4.03;;;;;;;;;;4921316;29;20052;-64
2022/11/28 01:04:47;;;;;;;7.95;4.60;;;;;;;;;;4921723;29;20059;-64
2022/11/28 01:07:13;;;;;;;9.00;4.90;;;;;;;;;;4920963;29;20048;-64
2022/11/28 01:09:39;;;;;;;7.25;4.93;;;;;;;;;;4921598;29;20083;-64
2022/11/28 01:12:06;;;;;;;6.75;4.78;;;;;;;;;;4921050;29;20442;-64
2022/11/28 01:14:32;;;;;;;8.65;4.53;;;;;;;;;;4921305;29;20040;-64
2022/11/28 01:16:59;;;;;;;8.23;5.47;;;;;;;;;;4917468;29;20067;-64
2022/11/28 01:19:25;;;;;;;7.32;5.25;;;;;;;;;;4921063;29;20051;-64
2022/11/28 01:21:52;;;;;;;9.30;5.35;;;;;;;;;;4921749;29;20064;-64
2022/11/28 01:24:18;;;;;;;7.65;5.35;;;;;;;;;;4921869;29;20056;-64
2022/11/28 01:26:44;;;;;;;8.02;5.18;;;;;;;;;;4924152;29;20048;-64
2022/11/28 01:29:11;;;;;;;9.32;5.40;;;;;;;;;;4943816;29;20063;-64
2022/11/28 01:31:37;;;;;;;6.97;5.05;;;;;;;;;;4920395;29;20705;-63
2022/11/28 01:34:04;;;;;;;8.20;5.00;;;;;;;;;;4920553;29;20095;-64
2022/11/28 01:36:30;;;;;;;7.93;4.38;;;;;;;;;;4919370;29;20059;-64
2022/11/28 01:38:57;;;;;;;7.45;5.57;;;;;;;;;;4919373;29;20044;-64
2022/11/28 01:41:25;;;;;;;6.70;4.40;;;;;;;;;;4918068;29;20454;-64
2022/11/28 01:44:03;;;;;;;7.60;4.72;;;;;;;;;;4919879;29;20055;-65
2022/11/28 01:46:29;;;;;;;8.20;4.65;;;;;;;;;;4921613;29;20043;-64
2022/11/28 01:48:58;;;;;;;8.27;4.90;;;;;;;;;;4923682;29;20135;-64
2022/11/28 01:51:24;;;;;;;7.72;4.32;;;;;;;;;;4922230;29;20416;-64
2022/11/28 01:53:51;;;;;;;6.28;4.20;;;;;;;;;;4924334;29;20044;-64
2022/11/28 01:56:24;;;;;;;6.90;4.75;;;;;;;;;;4924795;29;20044;-64
2022/11/28 01:58:53;;;;;;;7.63;4.57;;;;;;;;;;4923733;29;20415;-64
2022/11/28 02:01:20;;;;;;;6.53;4.55;;;;;;;;;;4938830;29;20048;-64
2022/11/28 02:03:48;;;;;;;6.50;4.50;;;;;;;;;;4928127;29;20072;-65
2022/11/28 02:06:16;;;;;;;6.55;4.53;;;;;;;;;;4925367;29;20255;-64
2022/11/28 02:08:42;;;;;;;9.27;4.60;;;;;;;;;;4942052;29;20051;-64
2022/11/28 02:11:31;;;;;;;5.63;4.10;;;;;;;;;;4941732;29;20055;-64
2022/11/28 02:14:03;;;;;;;6.03;3.92;;;;;;;;;;4921952;29;20041;-64
2022/11/28 02:16:41;;;;;;;7.22;4.28;;;;;;;;;;4921688;29;20048;-65
2022/11/28 02:19:27;;;;;;;5.72;4.05;;;;;;;;;;4920222;29;20048;-64
2022/11/28 02:22:12;;;;;;;4.82;3.80;;;;;;;;;;4919697;29;20606;-64
2022/11/28 02:24:54;;;;;;;5.00;3.55;;;;;;;;;;4922604;29;20044;-64
2022/11/28 02:27:30;;;;;;;6.32;3.90;;;;;;;;;;4920995;29;20056;-64
2022/11/28 02:30:06;;;;;;;6.93;3.50;;;;;;;;;;4921888;29;20048;-64
2022/11/28 02:32:35;;;;;;;4.28;3.65;;;;;;;;;;4921974;29;20062;-63
2022/11/28 02:35:01;;;;;;;5.95;3.70;;;;;;;;;;4919194;29;20059;-63
2022/11/28 02:37:35;;;;;;;8.10;4.32;;;;;;;;;;4919519;29;20055;-63
2022/11/28 02:40:01;;;;;;;7.43;3.67;;;;;;;;;;4918559;29;20569;-63
2022/11/28 02:42:32;;;;;;;7.45;3.78;;;;;;;;;;4921716;29;20103;-63
2022/11/28 02:45:21;;;;;;;6.35;4.00;;;;;;;;;;4924416;29;20059;-63
2022/11/28 02:47:50;;;;;;;5.25;4.00;;;;;;;;;;4904825;29;20667;-63
2022/11/28 02:50:29;;;;;;;5.57;3.85;;;;;;;;;;4923187;29;20047;-62
2022/11/28 02:52:59;;;;;;;6.57;3.92;;;;;;;;;;4921844;29;20051;-63
2022/11/28 02:55:26;;;;;;;5.80;3.85;;;;;;;;;;4916675;29;20465;-63
2022/11/28 02:57:53;;;;;;;7.72;4.00;;;;;;;;;;4917821;29;20044;-63
2022/11/28 03:00:30;;;;;;;9.48;3.58;;;;;;;;;;4917976;29;20069;-63
2022/11/28 03:03:16;;;;;;;6.32;3.75;;;;;;;;;;4918080;29;20477;-62
2022/11/28 03:05:48;;;;;;;7.10;3.85;;;;;;;;;;4918132;29;20051;-63
2022/11/28 03:08:21;;;;;;;6.45;3.80;;;;;;;;;;4918190;29;20052;-63
2022/11/28 03:10:47;;;;;;;6.00;3.70;;;;;;;;;;4926066;29;20092;-63
2022/11/28 03:13:35;;;;;;;18.40;10.55;;;;;;;;;;4925879;29;20040;-63
2022/11/28 03:16:08;;;;;;;8.68;5.82;;;;;;;;;;4924635;29;20040;-63
2022/11/28 03:18:38;;;;;;;5.72;3.53;;;;;;;;;;4939993;29;20055;-63
2022/11/28 03:21:09;;;;;;;8.40;4.10;;;;;;;;;;4923514;29;20056;-62
2022/11/28 03:23:41;;;;;;;7.80;3.88;;;;;;;;;;4923938;29;20095;-63
2022/11/28 03:26:17;;;;;;;7.95;4.15;;;;;;;;;;4919599;29;20048;-64
2022/11/28 03:28:46;;;;;;;7.57;4.00;;;;;;;;;;4935127;29;20050;-63
2022/11/28 03:31:18;;;;;;;6.68;3.90;;;;;;;;;;4920263;29;20107;-63
2022/11/28 03:33:47;;;;;;;7.85;3.40;;;;;;;;;;4920163;29;20048;-63
2022/11/28 03:36:17;;;;;;;7.43;3.53;;;;;;;;;;4918604;29;20056;-64
2022/11/28 03:38:46;;;;;;;4.93;3.45;;;;;;;;;;4918961;29;20047;-63
2022/11/28 03:41:23;;;;;;;4.32;3.30;;;;;;;;;;4919086;29;20044;-63
2022/11/28 03:43:52;;;;;;;5.97;3.80;;;;;;;;;;4919906;29;20154;-63
2022/11/28 03:46:20;;;;;;;10.80;3.70;;;;;;;;;;4920692;29;20056;-63
2022/11/28 03:48:51;;;;;;;5.45;3.75;;;;;;;;;;4923303;29;20044;-63
2022/11/28 03:51:20;;;;;;;4.97;3.25;;;;;;;;;;4923832;29;20099;-63
2022/11/28 03:53:49;;;;;;;3.97;3.28;;;;;;;;;;4924576;29;20044;-63
2022/11/28 03:56:19;;;;;;;3.95;3.13;;;;;;;;;;4937449;29;20055;-63
2022/11/28 03:58:52;;;;;;;7.20;3.40;;;;;;;;;;4923270;29;20048;-63
2022/11/28 04:01:18;;;;;;;6.53;3.88;;;;;;;;;;4924048;29;20044;-62
2022/11/28 04:03:53;;;;;;;6.20;4.50;;;;;;;;;;4921396;29;20103;-63
2022/11/28 04:06:20;;;;;;;6.10;4.40;;;;;;;;;;4919787;29;20048;-63
2022/11/28 04:08:48;;;;;;;4.55;3.05;;;;;;;;;;4920163;29;20469;-63
2022/11/28 04:11:17;;;;;;;6.75;3.70;;;;;;;;;;4918388;29;20056;-63
2022/11/28 04:14:10;;;;;;;5.18;3.45;;;;;;;;;;4919547;29;20087;-63
2022/11/28 04:16:40;;;;;;;6.90;4.10;;;;;;;;;;4915572;29;20142;-63
2022/11/28 04:19:25;;;;;;;6.35;3.97;;;;;;;;;;4922642;29;20036;-63
2022/11/28 04:21:54;;;;;;;6.72;3.90;;;;;;;;;;4917580;29;20052;-63
2022/11/28 04:24:22;;;;;;;6.13;3.70;;;;;;;;;;4917675;29;20055;-63
2022/11/28 04:27:00;;;;;;;4.88;3.30;;;;;;;;;;4915898;29;20099;-63
2022/11/28 04:29:30;;;;;;;5.45;3.80;;;;;;;;;;4916064;29;20048;-63
2022/11/28 04:31:57;;;;;;;5.32;3.30;;;;;;;;;;4916304;29;20044;-63
2022/11/28 04:34:24;;;;;;;7.20;4.10;;;;;;;;;;4931195;29;20040;-63
2022/11/28 04:36:52;;;;;;;4.07;3.40;;;;;;;;;;4920446;29;20071;-63
2022/11/28 04:39:22;;;;;;;5.85;4.20;;;;;;;;;;4920449;29;20055;-63
2022/11/28 04:41:53;;;;;;;6.32;4.25;;;;;;;;;;4922541;29;20079;-63
2022/11/28 04:44:38;;;;;;;6.15;4.13;;;;;;;;;;4918946;29;20056;-63
2022/11/28 04:47:05;;;;;;;9.85;5.25;;;;;;;;;;4920239;29;20111;-63
2022/11/28 04:49:31;;;;;;;6.70;3.75;;;;;;;;;;4918038;29;20055;-63
2022/11/28 04:52:08;;;;;;;7.03;4.57;;;;;;;;;;4919453;29;20051;-63
2022/11/28 04:54:41;;;;;;;6.90;4.20;;;;;;;;;;4923171;29;20048;-63
2022/11/28 04:57:16;;;;;;;6.78;4.43;;;;;;;;;;4924295;29;20048;-62
2022/11/28 04:59:43;;;;;;;5.93;3.85;;;;;;;;;;4920619;29;20067;-62
2022/11/28 05:02:10;;;;;;;6.18;4.07;;;;;;;;;;5366604;23;20107;-64
2022/11/28 05:04:37;;;;;;;6.28;3.30;;;;;;;;;;4903464;29;20054;-65
2022/11/28 05:07:05;;;;;;;6.50;3.90;;;;;;;;;;4917386;29;20048;-65
2022/11/28 05:09:32;;;;;;;7.85;3.88;;;;;;;;;;4903250;29;20512;-66
2022/11/28 05:11:58;;;;;;;8.73;4.25;;;;;;;;;;4902043;29;20379;-66
2022/11/28 05:14:25;;;;;;;5.43;3.97;;;;;;;;;;4903227;29;20500;-65
2022/11/28 05:16:51;;;;;;;8.13;4.47;;;;;;;;;;4901485;29;20051;-66
2022/11/28 05:19:18;;;;;;;8.85;5.63;;;;;;;;;;4902216;29;20056;-65
2022/11/28 05:21:44;;;;;;;8.05;4.88;;;;;;;;;;4901879;29;20501;-65
2022/11/28 05:24:11;;;;;;;5.60;3.58;;;;;;;;;;4903581;29;20453;-65
2022/11/28 05:26:37;;;;;;;12.90;5.00;;;;;;;;;;4902435;29;20052;-66
2022/11/28 05:29:04;;;;;;;7.53;4.20;;;;;;;;;;4918462;29;20079;-66
2022/11/28 05:31:31;;;;;;;5.80;4.63;;;;;;;;;;4902036;29;20059;-66
2022/11/28 05:33:57;;;;;;;7.65;4.45;;;;;;;;;;4903176;29;20045;-66
2022/11/28 05:36:24;;;;;;;6.63;4.18;;;;;;;;;;4901470;29;20405;-66
2022/11/28 05:38:50;;;;;;;9.20;4.90;;;;;;;;;;4902474;29;20049;-64
2022/11/28 05:41:24;;;;;;;7.00;4.68;;;;;;;;;;4902433;29;20515;-65
2022/11/28 05:43:51;;;;;;;5.82;4.18;;;;;;;;;;4886896;29;20052;-64
2022/11/28 05:46:18;;;;;;;11.55;5.75;;;;;;;;;;4901462;29;20081;-65
2022/11/28 05:48:44;;;;;;;6.40;4.28;;;;;;;;;;4901978;29;20147;-64
2022/11/28 05:51:11;;;;;;;9.68;4.13;;;;;;;;;;4902879;29;20048;-64
2022/11/28 05:53:38;;;;;;;7.30;4.65;;;;;;;;;;4901899;29;20112;-65
2022/11/28 05:56:13;;;;;;;6.28;5.32;;;;;;;;;;4916816;29;20040;-64
2022/11/28 05:58:39;;;;;;;9.35;4.80;;;;;;;;;;4917488;29;20070;-66
2022/11/28 06:01:13;;;;;;;7.40;5.20;;;;;;;;;;4901887;29;20050;-66
2022/11/28 06:03:40;;;;;;;;;;;;;;;;;;4903394;29;20072;-64
2022/11/28 06:06:14;;;;;;;5.93;4.68;;;;;;;;;;4901261;29;19929;-65
2022/11/28 06:08:41;;;;;;;7.45;4.93;;;;;;;;;;4901845;29;20056;-65
2022/11/28 06:11:08;;;;;;;7.57;4.90;;;;;;;;;;4901779;29;20045;-66
2022/11/28 06:13:35;;;;;;;6.55;4.85;;;;;;;;;;4899332;29;20056;-65
2022/11/28 06:16:01;;;;;;;8.98;4.78;;;;;;;;;;4882808;29;20560;-65
2022/11/28 06:18:28;;;;;;;11.07;5.10;;;;;;;;;;4899668;29;20044;-65
2022/11/28 06:20:54;;;;;;;9.57;5.85;;;;;;;;;;4898822;29;20036;-65
2022/11/28 06:23:21;;;;;;;9.65;5.38;;;;;;;;;;4899621;29;20045;-65
2022/11/28 06:25:47;;;;;;;6.15;4.65;;;;;;;;;;4897948;29;20462;-66
2022/11/28 06:28:13;;;;;;;8.52;4.70;;;;;;;;;;4898440;29;20066;-66
2022/11/28 06:30:41;;;;;;;7.28;4.40;;;;;;;;;;4899645;29;20048;-66
2022/11/28 06:33:08;;;;;;;7.80;5.10;;;;;;;;;;4913937;29;20053;-66
2022/11/28 06:35:35;;;;;;;8.27;5.85;;;;;;;;;;4898879;29;20064;-66
2022/11/28 06:38:01;;;;;;;12.98;7.05;;;;;;;;;;4898229;29;20057;-66
2022/11/28 06:40:27;;;;;;;8.95;5.93;;;;;;;;;;4898182;29;20048;-66
2022/11/28 06:42:54;;;;;;;9.32;5.55;;;;;;;;;;4898301;29;20048;-66
2022/11/28 06:45:20;;;;;;;6.53;5.03;;;;;;;;;;4898616;29;20092;-66
2022/11/28 06:47:47;;;;;;;8.35;5.20;;;;;;;;;;4898292;29;20059;-66
2022/11/28 06:50:13;;;;;;;8.43;4.93;;;;;;;;;;4898042;29;20075;-67
2022/11/28 06:52:39;;;;;;;7.95;5.25;;;;;;;;;;4900654;29;20100;-66
2022/11/28 06:55:06;;;;;;;9.05;5.00;;;;;;;;;;4905542;29;20044;-66
2022/11/28 06:57:33;;;;;;;7.65;4.60;;;;;;;;;;4902234;29;20044;-66
2022/11/28 06:59:59;;;;;;;7.60;5.55;;;;;;;;;;4898437;29;20044;-66
2022/11/28 07:02:26;;;;;;;9.43;5.60;;;;;;;;;;4899091;29;20044;-66
2022/11/28 07:04:52;;;;;;;6.03;4.90;;;;;;;;;;4913894;29;20049;-65
2022/11/28 07:07:19;;;;;;;8.15;5.40;;;;;;;;;;4897183;29;20465;-66
2022/11/28 07:09:45;;;;;;;8.85;4.95;;;;;;;;;;4897771;29;20053;-67
2022/11/28 07:12:12;;;;;;;9.35;5.05;;;;;;;;;;4897736;29;20482;-66
2022/11/28 07:14:38;;;;;;;9.73;4.97;;;;;;;;;;4913059;29;20100;-66
2022/11/28 07:17:05;;;;;;;9.95;5.80;;;;;;;;;;4897156;29;20104;-66
2022/11/28 07:19:31;;;;;;;7.15;5.07;;;;;;;;;;4897629;29;20054;-66
2022/11/28 07:21:58;;;;;;;7.45;5.25;;;;;;;;;;4899078;29;20045;-67
2022/11/28 07:24:24;;;;;;;8.32;5.05;;;;;;;;;;4897998;29;20084;-66
2022/11/28 07:26:51;;;;;;;10.38;5.55;;;;;;;;;;4897445;29;20052;-66
2022/11/28 07:29:18;;;;;;;7.75;6.15;;;;;;;;;;4897442;29;20049;-66
2022/11/28 07:31:44;;;;;;;9.02;5.82;;;;;;;;;;4897325;29;20108;-66
2022/11/28 07:34:11;;;;;;;7.40;5.45;;;;;;;;;;4898454;29;20127;-66
2022/11/28 07:36:37;;;;;;;9.75;6.07;;;;;;;;;;4898376;29;20044;-66
2022/11/28 07:39:07;;;;;;;12.68;5.60;;;;;;;;;;4898720;29;20075;-66
2022/11/28 07:41:33;;;;;;;11.13;5.55;;;;;;;;;;4898627;29;20383;-67
2022/11/28 07:44:00;;;;;;;13.02;6.50;;;;;;;;;;4898443;29;20462;-67
2022/11/28 07:46:27;;;;;;;11.02;6.68;;;;;;;;;;4881334;29;20071;-68
2022/11/28 07:48:54;;;;;;;9.95;6.47;;;;;;;;;;4913064;29;20051;-65
2022/11/28 07:51:21;;;;;;;7.35;5.85;;;;;;;;;;4898339;29;20108;-67
2022/11/28 07:53:48;;;;;;;10.70;6.70;;;;;;;;;;4899050;29;20048;-67
2022/11/28 07:56:16;;;;;;;12.05;7.22;;;;;;;;;;4899723;29;20054;-67
2022/11/28 07:58:43;;;;;;;10.05;6.88;;;;;;;;;;4883071;29;20045;-67
2022/11/28 08:01:14;;;;;;;8.70;6.55;;;;;;;;;;4899255;29;20049;-66
2022/11/28 08:03:41;;;;;;;10.85;5.72;;;;;;;;;;4913397;29;20053;-66
2022/11/28 08:06:08;;;;;;;9.20;5.85;;;;;;;;;;4897096;29;20083;-67
2022/11/28 08:08:35;;;;;;;12.90;6.28;;;;;;;;;;4897557;29;20049;-67
2022/11/28 08:11:02;;;;;;;11.20;7.15;;;;;;;;;;4897210;29;20049;-67
2022/11/28 08:13:29;;;;;;;10.00;5.95;;;;;;;;;;4898112;29;20469;-65
2022/11/28 08:15:55;;;;;;;11.18;6.13;;;;;;;;;;4897805;29;20075;-65
2022/11/28 08:18:22;;;;;;;10.02;6.78;;;;;;;;;;4897511;29;20049;-66
2022/11/28 08:20:48;;;;;;;9.25;6.15;;;;;;;;;;4898399;29;20032;-66
2022/11/28 08:23:15;;;;;;;9.85;6.72;;;;;;;;;;4898582;29;20552;-66
2022/11/28 08:25:42;;;;;;;9.57;6.78;;;;;;;;;;4898611;29;20104;-66
2022/11/28 08:28:08;;;;;;;10.50;6.28;;;;;;;;;;4897042;29;20075;-66
2022/11/28 08:30:35;;;;;;;9.57;6.18;;;;;;;;;;4897009;29;20386;-67
2022/11/28 08:33:01;;;;;;;9.32;6.57;;;;;;;;;;4897925;29;20052;-66
2022/11/28 08:35:28;;;;;;;8.07;5.85;;;;;;;;;;4897397;29;20040;-66
2022/11/28 08:37:54;;;;;;;8.40;5.70;;;;;;;;;;4881453;29;20124;-65
2022/11/28 08:40:27;;;;;;;9.63;6.28;;;;;;;;;;4899522;29;20052;-67
2022/11/28 08:42:54;;;;;;;7.93;5.50;;;;;;;;;;4913597;29;20096;-67
2022/11/28 08:45:21;;;;;;;9.25;5.60;;;;;;;;;;4897939;29;20143;-67
2022/11/28 08:47:47;;;;;;;10.23;6.60;;;;;;;;;;4898350;29;20454;-68
2022/11/28 08:50:14;;;;;;;9.63;5.47;;;;;;;;;;4905874;29;20073;-68
2022/11/28 08:52:41;;;;;;;9.10;5.97;;;;;;;;;;4906890;29;20063;-67
2022/11/28 08:55:08;;;;;;;9.15;5.32;;;;;;;;;;4919776;29;20044;-67
2022/11/28 08:57:34;;;;;;;8.73;5.60;;;;;;;;;;4906506;29;20037;-67
2022/11/28 09:00:01;;;;;;;9.60;6.35;;;;;;;;;;4906485;29;20041;-67
2022/11/28 09:02:27;;;;;;;7.45;5.80;;;;;;;;;;4906489;29;20044;-67
2022/11/28 09:04:53;;;;;;;9.40;5.70;;;;;;;;;;4904992;29;20072;-67
2022/11/28 09:07:20;;;;;;;9.68;5.70;;;;;;;;;;4905352;29;20056;-66
2022/11/28 09:09:46;;;;;;;9.82;5.55;;;;;;;;;;4897893;29;20112;-66
2022/11/28 09:12:14;;;;;;;9.85;5.75;;;;;;;;;;4898436;29;20053;-66
2022/11/28 09:14:40;;;;;;;8.77;5.38;;;;;;;;;;4897862;29;20051;-66
2022/11/28 09:17:07;;;;;;;8.82;6.05;;;;;;;;;;4897552;29;20041;-66
2022/11/28 09:19:33;;;;;;;11.70;5.55;;;;;;;;;;4897465;29;20041;-67
2022/11/28 09:22:00;;;;;;;9.18;5.35;;;;;;;;;;4896089;29;20081;-67
2022/11/28 09:24:26;;;;;;;8.32;5.38;;;;;;;;;;4897792;29;20045;-66
2022/11/28 09:26:52;;;;;;;8.25;5.30;;;;;;;;;;4895979;29;20048;-66
2022/11/28 09:29:19;;;;;;;9.23;5.78;;;;;;;;;;4896764;29;20056;-65
2022/11/28 09:31:45;;;;;;;11.10;6.28;;;;;;;;;;4897404;29;20117;-66
2022/11/28 09:34:13;;;;;;;11.75;6.68;;;;;;;;;;4896068;29;20041;-66
2022/11/28 09:36:39;;;;;;;10.32;6.47;;;;;;;;;;4895363;29;20044;-66
2022/11/28 09:39:06;;;;;;;9.98;7.30;;;;;;;;;;4895962;29;20057;-65
2022/11/28 09:41:48;;;;;;;10.63;7.15;;;;;;;;;;4895814;29;20501;-66
2022/11/28 09:44:22;;;;;;;11.75;6.32;;;;;;;;;;4896048;29;20105;-65
2022/11/28 09:46:51;;;;;;;9.73;5.63;;;;;;;;;;4896638;29;20079;-65
2022/11/28 09:49:29;;;;;;;6.68;5.45;;;;;;;;;;4900487;29;20096;-65
2022/11/28 09:52:08;;;;;;;8.50;6.07;;;;;;;;;;4900387;29;20044;-65
2022/11/28 09:54:47;;;;;;;9.88;5.50;;;;;;;;;;4900345;29;20118;-66
2022/11/28 09:57:28;;;;;;;7.63;5.47;;;;;;;;;;4900199;29;20048;-67
2022/11/28 09:59:55;;;;;;;7.90;5.75;;;;;;;;;;4899055;29;20048;-67
2022/11/28 10:02:24;;;;;;;10.95;6.10;;;;;;;;;;4898887;29;20104;-67
2022/11/28 10:05:07;;;;;;;8.90;5.25;;;;;;;;;;4900278;29;20071;-67
2022/11/28 10:08:06;;;;;;;7.45;5.18;;;;;;;;;;4900149;29;20080;-66
2022/11/28 10:10:38;;;;;;;7.35;5.72;;;;;;;;;;4868600;29;20056;-65
2022/11/28 10:13:08;;;;;;;8.18;5.43;;;;;;;;;;4898896;29;20044;-67
2022/11/28 10:15:48;;;;;;;9.27;5.80;;;;;;;;;;4898145;29;20088;-65
2022/11/28 10:18:27;;;;;;;7.28;5.57;;;;;;;;;;4898854;29;20167;-65
2022/11/28 10:20:55;;;;;;;12.25;5.45;;;;;;;;;;4900212;29;20040;-66
2022/11/28 10:23:25;;;;;;;6.97;5.53;;;;;;;;;;4898638;29;20056;-66
2022/11/28 10:25:52;;;;;;;8.40;5.57;;;;;;;;;;4899194;29;20056;-66
2022/11/28 10:28:22;;;;;;;8.05;5.72;;;;;;;;;;4899663;29;20055;-66
2022/11/28 10:30:53;;;;;;;12.93;8.43;;;;;;;;;;4898514;29;20055;-66
2022/11/28 10:33:23;;;;;;;11.75;8.27;;;;;;;;;;4899575;29;20044;-66
2022/11/28 10:35:53;;;;;;;7.82;6.05;;;;;;;;;;4899051;29;20052;-66
2022/11/28 10:38:24;;;;;;;8.20;5.75;;;;;;;;;;4898442;29;20044;-65
2022/11/28 10:40:56;;;;;;;15.93;9.95;;;;;;;;;;4898505;29;20073;-66
2022/11/28 10:43:47;;;;;;;20.65;12.00;;;;;;;;;;4898853;29;20048;-67
2022/11/28 10:46:16;;;;;;;10.55;7.95;;;;;;;;;;4863580;29;20095;-65
2022/11/28 10:49:08;;;;;;;9.80;7.43;;;;;;;;;;4900041;29;20096;-66
2022/11/28 10:51:45;;;;;;;9.52;7.88;;;;;;;;;;4935519;29;20065;-67
2022/11/28 10:54:18;;;;;;;8.15;6.25;;;;;;;;;;4909873;29;20055;-66
2022/11/28 10:56:55;;;;;;;12.25;7.05;;;;;;;;;;4905806;29;20045;-67
2022/11/28 10:59:28;;;;;;;11.13;6.72;;;;;;;;;;4919462;29;20073;-66
2022/11/28 11:01:55;;;;;;;10.82;7.60;;;;;;;;;;4906379;29;20041;-66
2022/11/28 11:04:25;;;;;;;15.48;8.45;;;;;;;;;;4905066;29;20051;-65
2022/11/28 11:07:02;;;;;;;31.85;16.85;;;;;;;;;;4904918;29;20079;-66
2022/11/28 11:09:43;;;;;;;17.77;10.48;;;;;;;;;;4905730;29;20076;-66
2022/11/28 11:12:32;;;;;;;12.43;7.88;;;;;;;;;;4920108;29;20056;-65
2022/11/28 11:15:13;;;;;;;15.13;9.70;;;;;;;;;;4903532;29;20081;-66
2022/11/28 11:17:39;;;;;;;10.27;6.88;;;;;;;;;;4920007;29;20041;-66
2022/11/28 11:20:24;;;;;;;8.77;5.45;;;;;;;;;;4903772;29;20059;-65
2022/11/28 11:23:01;;;;;;;11.05;7.07;;;;;;;;;;4904914;29;20058;-65
2022/11/28 11:25:27;;;;;;;;;;;;;;;;;;4902110;29;20056;-65
2022/11/28 11:27:55;;;;;;;7.75;5.80;;;;;;;;;;4918182;29;19939;-65
2022/11/28 11:30:33;;;;;;;7.00;5.13;;;;;;;;;;4902165;29;20048;-65
2022/11/28 11:33:02;;;;;;;12.57;6.80;;;;;;;;;;4901811;29;20055;-66
2022/11/28 11:35:31;;;;;;;16.17;9.70;;;;;;;;;;4900730;29;20060;-66
2022/11/28 11:38:16;;;;;;;17.23;9.77;;;;;;;;;;4902657;29;20040;-66
2022/11/28 11:40:43;;;;;;;22.05;12.57;;;;;;;;;;4901735;29;20134;-66
2022/11/28 11:43:25;;;;;;;10.10;6.82;;;;;;;;;;4916946;29;20071;-67
2022/11/28 11:46:06;;;;;;;18.73;11.45;;;;;;;;;;4900570;29;20124;-64
2022/11/28 11:48:37;;;;;;;14.50;9.00;;;;;;;;;;4902415;29;20045;-66
2022/11/28 11:51:03;;;;;;;15.35;9.70;;;;;;;;;;4902452;29;20060;-66
2022/11/28 11:53:30;;;;;;;17.05;8.40;;;;;;;;;;4917599;29;20059;-65
2022/11/28 11:55:59;;;;;;;18.58;9.35;;;;;;;;;;4901249;29;20037;-66
2022/11/28 11:58:29;;;;;;;17.58;10.20;;;;;;;;;;4901234;29;20124;-66
2022/11/28 12:00:57;;;;;;;11.88;8.35;;;;;;;;;;4898711;29;20099;-67
2022/11/28 12:03:34;;;;;;;19.35;11.63;;;;;;;;;;4898624;29;20211;-67
2022/11/28 12:06:10;;;;;;;10.55;7.20;;;;;;;;;;4897921;29;20072;-67
2022/11/28 12:08:44;;;;;;;9.43;6.00;;;;;;;;;;4913177;29;20059;-67
2022/11/28 12:11:10;;;;;;;39.97;13.20;;;;;;;;;;4913063;29;20052;-65
2022/11/28 12:13:37;;;;;;;39.90;11.88;;;;;;;;;;4913648;29;20049;-65
2022/11/28 12:16:20;;;;;;;16.40;6.85;;;;;;;;;;4897270;29;20048;-66
2022/11/28 12:18:52;;;;;;;14.50;6.45;;;;;;;;;;4913768;29;20147;-66
2022/11/28 12:21:21;;;;;;;11.02;6.53;;;;;;;;;;4897606;29;20544;-66
2022/11/28 12:23:48;;;;;;;6.53;4.85;;;;;;;;;;4912517;29;20051;-66
2022/11/28 12:26:14;;;;;;;9.30;5.28;;;;;;;;;;4912645;29;20052;-67
2022/11/28 12:28:52;;;;;;;11.23;6.00;;;;;;;;;;4912323;29;20071;-67
2022/11/28 12:31:38;;;;;;;7.78;5.18;;;;;;;;;;4912340;29;20056;-67
2022/11/28 12:34:12;;;;;;;11.68;5.18;;;;;;;;;;4912244;29;20200;-67
2022/11/28 12:36:44;;;;;;;11.70;5.38;;;;;;;;;;4911623;29;20060;-66
2022/11/28 12:39:23;;;;;;;11.60;5.57;;;;;;;;;;4897865;29;20055;-66
2022/11/28 12:42:08;;;;;;;13.45;6.07;;;;;;;;;;4897630;29;20058;-66
2022/11/28 12:44:53;;;;;;;9.15;5.82;;;;;;;;;;4897977;29;20044;-66
2022/11/28 12:47:35;;;;;;;10.27;7.30;;;;;;;;;;4911980;29;20045;-66
2022/11/28 12:50:20;;;;;;;9.80;6.38;;;;;;;;;;4911942;29;20089;-66
2022/11/28 12:53:06;;;;;;;10.57;7.03;;;;;;;;;;4896069;29;20077;-66
2022/11/28 12:55:47;;;;;;;13.32;7.20;;;;;;;;;;4911408;29;20071;-66
2022/11/28 12:58:23;;;;;;;8.88;5.93;;;;;;;;;;4911637;29;20082;-66
2022/11/28 13:01:01;;;;;;;12.05;6.22;;;;;;;;;;4897871;29;20400;-66
2022/11/28 13:03:40;;;;;;;10.63;6.65;;;;;;;;;;4912101;29;20044;-67
2022/11/28 13:06:09;;;;;;;9.98;6.80;;;;;;;;;;4913674;29;20063;-67
2022/11/28 13:08:55;;;;;;;6.32;5.10;;;;;;;;;;4897447;29;20055;-66
2022/11/28 13:11:45;;;;;;;6.07;4.90;;;;;;;;;;4912936;29;20059;-66
2022/11/28 13:14:21;;;;;;;8.98;5.18;;;;;;;;;;4912595;29;20057;-66
2022/11/28 13:16:51;;;;;;;6.32;4.93;;;;;;;;;;4897792;29;20405;-66
2022/11/28 13:19:18;;;;;;;9.10;5.18;;;;;;;;;;4913602;29;20045;-67
2022/11/28 13:21:44;;;;;;;7.95;4.30;;;;;;;;;;4898566;29;20037;-66
2022/11/28 13:24:23;;;;;;;7.50;4.70;;;;;;;;;;4901112;29;20040;-66
2022/11/28 13:27:13;;;;;;;7.97;4.10;;;;;;;;;;4901213;29;20084;-67
2022/11/28 13:29:48;;;;;;;8.10;4.68;;;;;;;;;;4890483;29;20059;-67
2022/11/28 13:32:23;;;;;;;6.47;4.15;;;;;;;;;;4916557;29;20045;-65
2022/11/28 13:34:50;;;;;;;9.10;4.90;;;;;;;;;;4915910;29;20402;-66
2022/11/28 13:37:27;;;;;;;8.20;4.90;;;;;;;;;;4902339;29;20449;-68
2022/11/28 13:40:32;;;;;;;8.68;6.03;;;;;;;;;;4903913;29;20048;-68
2022/11/28 13:43:03;;;;;;;8.88;6.47;;;;;;;;;;4899832;29;20045;-67
2022/11/28 13:45:35;;;;;;;10.65;6.57;;;;;;;;;;4914909;29;20127;-66
2022/11/28 13:48:20;;;;;;;10.45;5.43;;;;;;;;;;4899948;29;20406;-66
2022/11/28 13:51:10;;;;;;;8.07;4.57;;;;;;;;;;4913537;29;20171;-69
2022/11/28 13:53:45;;;;;;;8.35;4.65;;;;;;;;;;4901337;29;20100;-66
2022/11/28 13:56:25;;;;;;;10.50;5.85;;;;;;;;;;4899121;29;20055;-66
2022/11/28 13:58:52;;;;;;;10.63;6.80;;;;;;;;;;4901119;29;20045;-65
2022/11/28 14:01:22;;;;;;;12.15;6.97;;;;;;;;;;4915326;29;20040;-66
2022/11/28 14:03:49;;;;;;;8.95;5.93;;;;;;;;;;4900388;29;20044;-67
2022/11/28 14:06:20;;;;;;;6.78;5.22;;;;;;;;;;4914935;29;20048;-66
2022/11/28 14:08:48;;;;;;;8.45;6.07;;;;;;;;;;4900958;29;20052;-67
2022/11/28 14:11:22;;;;;;;9.25;5.13;;;;;;;;;;4900011;29;20115;-66
2022/11/28 14:14:02;;;;;;;9.52;5.97;;;;;;;;;;4899754;29;20044;-68
2022/11/28 14:16:35;;;;;;;8.18;5.05;;;;;;;;;;4898742;29;20048;-67
2022/11/28 14:19:14;;;;;;;11.75;7.90;;;;;;;;;;4915386;29;20048;-66
2022/11/28 14:21:43;;;;;;;8.45;5.50;;;;;;;;;;4915573;29;20048;-67
2022/11/28 14:24:19;;;;;;;9.48;5.70;;;;;;;;;;4915451;29;20049;-67
2022/11/28 14:26:46;;;;;;;6.93;4.82;;;;;;;;;;4915754;29;20410;-66
2022/11/28 14:29:19;;;;;;;7.70;4.20;;;;;;;;;;4915481;29;20502;-66
2022/11/28 14:31:45;;;;;;;6.80;4.60;;;;;;;;;;4915505;29;20062;-67
2022/11/28 14:34:46;;;;;;;6.07;4.13;;;;;;;;;;4899319;29;20111;-67
2022/11/28 14:37:20;;;;;;;6.32;4.38;;;;;;;;;;4900533;29;20148;-67
2022/11/28 14:39:48;;;;;;;12.25;5.30;;;;;;;;;;4900637;29;20128;-66
2022/11/28 14:42:14;;;;;;;7.05;4.80;;;;;;;;;;4899816;29;20490;-66
2022/11/28 14:45:02;;;;;;;8.23;5.00;;;;;;;;;;4912889;29;20474;-66
2022/11/28 14:47:38;;;;;;;8.80;6.10;;;;;;;;;;4901481;29;20053;-67
2022/11/28 14:50:06;;;;;;;7.13;5.25;;;;;;;;;;4917930;29;20089;-66
2022/11/28 14:52:41;;;;;;;11.00;4.28;;;;;;;;;;4918318;29;20049;-67
2022/11/28 14:55:10;;;;;;;5.68;4.20;;;;;;;;;;4916482;29;20055;-68
2022/11/28 14:57:40;;;;;;;9.18;4.43;;;;;;;;;;4901316;29;20053;-68
2022/11/28 15:00:27;;;;;;;5.30;4.30;;;;;;;;;;4915982;29;20525;-68
2022/11/28 15:03:12;;;;;;;5.32;4.00;;;;;;;;;;4898997;29;20411;-66